createdAt,value
2023-04-02T00:02:32.085Z,2.97
2023-04-02T00:07:34.509Z,3.10
2023-04-02T00:12:37.175Z,3.67
2023-04-02T00:17:39.473Z,3.22
2023-04-02T00:22:45.284Z,3.63
2023-04-02T00:27:48.020Z,3.83
2023-04-02T00:32:51.891Z,4.03
2023-04-02T00:37:55.069Z,3.05
2023-04-02T00:43:00.280Z,3.05
2023-04-02T00:48:21.407Z,2.63
2023-04-02T00:53:30.705Z,2.45
2023-04-02T00:58:36.942Z,3.65
2023-04-02T01:03:39.349Z,5.22
2023-04-02T01:08:44.570Z,7.70
2023-04-02T01:13:54.656Z,4.43
2023-04-02T01:19:06.421Z,4.95
2023-04-02T01:24:12.584Z,3.70
2023-04-02T01:29:20.717Z,3.15
2023-04-02T01:34:26.654Z,3.47
2023-04-02T01:39:48.055Z,3.90
2023-04-02T01:44:54.783Z,4.18
2023-04-02T01:50:25.687Z,5.30
2023-04-02T01:55:34.800Z,6.35
2023-04-02T02:00:43.832Z,5.55
2023-04-02T02:05:46.918Z,6.25
2023-04-02T02:10:51.135Z,8.05
2023-04-02T02:15:58.308Z,8.35
2023-04-02T02:21:05.607Z,6.40
2023-04-02T02:26:08.407Z,5.43
2023-04-02T02:31:22.920Z,5.13
2023-04-02T02:36:57.007Z,3.63
2023-04-02T02:42:22.123Z,3.17
2023-04-02T02:47:31.143Z,3.30
2023-04-02T02:52:38.772Z,3.45
2023-04-02T02:57:54.316Z,4.10
2023-04-02T03:02:59.046Z,4.40
2023-04-02T03:08:10.008Z,5.25
2023-04-02T03:13:15.397Z,4.85
2023-04-02T03:18:33.341Z,4.60
2023-04-02T03:23:49.345Z,5.00
2023-04-02T03:29:03.338Z,4.03
2023-04-02T03:34:33.794Z,4.68
2023-04-02T03:39:45.867Z,4.53
2023-04-02T03:45:10.715Z,4.40
2023-04-02T03:50:21.848Z,4.07
2023-04-02T03:55:32.872Z,4.47
2023-04-02T04:00:44.953Z,4.45
2023-04-02T04:06:00.923Z,4.10
2023-04-02T04:11:10.604Z,5.35
2023-04-02T04:16:19.448Z,5.30
2023-04-02T04:21:37.778Z,4.90
2023-04-02T04:27:11.867Z,5.70
2023-04-02T04:32:32.610Z,5.22
2023-04-02T04:37:43.826Z,6.60
2023-04-02T04:42:53.277Z,6.93
2023-04-02T04:48:01.792Z,6.55
2023-04-02T04:53:08.232Z,6.32
2023-04-02T04:58:25.565Z,5.03
2023-04-02T05:03:38.225Z,6.68
2023-04-02T05:08:47.853Z,5.95
2023-04-02T05:13:58.113Z,5.28
2023-04-02T05:19:10.593Z,5.72
2023-04-02T05:24:28.372Z,6.30
2023-04-02T05:29:37.749Z,5.55
2023-04-02T05:34:45.826Z,4.95
2023-04-02T05:39:55.925Z,6.03
2023-04-02T05:45:05.466Z,7.53
2023-04-02T05:50:07.881Z,8.85
2023-04-02T05:55:43.944Z,12.20
2023-04-02T06:01:00.111Z,11.65
2023-04-02T06:06:14.701Z,15.55
2023-04-02T06:11:24.133Z,8.60
2023-04-02T06:16:31.083Z,14.32
2023-04-02T06:21:33.487Z,12.35
2023-04-02T06:26:48.202Z,8.85
2023-04-02T06:31:56.794Z,11.77
2023-04-02T06:37:38.088Z,9.15
2023-04-02T06:43:09.249Z,10.23
2023-04-02T06:48:32.563Z,7.38
2023-04-02T06:53:40.297Z,6.47
2023-04-02T06:58:47.208Z,3.20
2023-04-02T07:03:50.625Z,5.63
2023-04-02T07:09:05.207Z,5.82
2023-04-02T07:14:12.376Z,4.68
2023-04-02T07:19:23.212Z,3.67
2023-04-02T07:24:30.207Z,4.57
2023-04-02T07:29:32.511Z,3.50
2023-04-02T07:34:34.818Z,5.90
2023-04-02T07:39:40.173Z,5.07
2023-04-02T07:44:43.089Z,3.50
2023-04-02T07:49:45.542Z,3.10
2023-04-02T07:54:48.062Z,1.75
2023-04-02T07:59:51.087Z,3.08
2023-04-02T08:04:53.482Z,2.65
2023-04-02T08:09:55.818Z,1.70
2023-04-02T08:14:58.267Z,1.40
2023-04-02T08:20:04.727Z,1.75
2023-04-02T08:25:07.451Z,1.73
2023-04-02T08:30:12.902Z,1.40
2023-04-02T08:35:17.301Z,1.88
2023-04-02T08:40:41.942Z,1.58
2023-04-02T08:46:35.733Z,1.20
2023-04-02T08:51:38.552Z,1.52
2023-04-02T08:56:47.502Z,1.20
2023-04-02T09:02:00.552Z,1.23
2023-04-02T09:07:04.633Z,1.10
2023-04-02T09:12:16.617Z,2.20
2023-04-02T09:17:28.185Z,1.02
2023-04-02T09:22:33.188Z,1.27
2023-04-02T09:27:36.953Z,2.03
2023-04-02T09:32:51.453Z,7.18
2023-04-02T09:38:33.259Z,2.25
2023-04-02T09:43:40.121Z,3.15
2023-04-02T09:48:53.453Z,4.70
2023-04-02T09:54:04.573Z,4.97
2023-04-02T09:59:16.926Z,1.80
2023-04-02T10:04:47.323Z,2.08
2023-04-02T10:09:58.906Z,1.77
2023-04-02T10:15:03.590Z,2.30
2023-04-02T10:20:17.948Z,1.60
2023-04-02T10:25:24.922Z,9.25
2023-04-02T10:30:35.999Z,2.35
2023-04-02T10:36:05.127Z,1.52
2023-04-02T10:41:21.479Z,1.63
2023-04-02T10:46:53.051Z,2.35
2023-04-02T10:51:55.399Z,1.60
2023-04-02T10:57:06.993Z,1.63
2023-04-02T11:02:36.721Z,1.70
2023-04-02T11:07:52.613Z,2.17
2023-04-02T11:13:23.103Z,1.52
2023-04-02T11:18:36.083Z,1.50
2023-04-02T11:24:01.786Z,1.42
2023-04-02T11:29:15.949Z,1.23
2023-04-02T11:35:03.050Z,1.45
2023-04-02T11:40:16.734Z,1.30
2023-04-02T11:45:25.246Z,1.80
2023-04-02T11:50:42.162Z,1.70
2023-04-02T11:55:44.499Z,2.20
2023-04-02T12:01:05.782Z,2.00
2023-04-02T12:06:29.467Z,1.60
2023-04-02T12:11:40.663Z,1.50
2023-04-02T12:16:43.082Z,1.15
2023-04-02T12:21:48.898Z,1.45
2023-04-02T12:27:16.578Z,1.27
2023-04-02T12:32:30.012Z,1.42
2023-04-02T12:37:32.869Z,1.13
2023-04-02T12:42:37.329Z,1.20
2023-04-02T12:47:45.432Z,1.38
2023-04-02T12:52:53.540Z,1.15
2023-04-02T12:57:57.670Z,2.08
2023-04-02T13:08:03.675Z,1.73
2023-04-02T13:18:20.737Z,1.20
2023-04-02T13:23:31.975Z,1.92
2023-04-02T13:28:34.352Z,1.25
2023-04-02T13:33:37.350Z,1.30
2023-04-02T13:38:39.727Z,1.73
2023-04-02T13:43:42.113Z,1.63
2023-04-02T13:48:44.470Z,1.80
2023-04-02T13:53:54.380Z,1.70
2023-04-02T13:58:56.785Z,1.73
2023-04-02T14:03:59.448Z,2.13
2023-04-02T14:09:14.286Z,2.60
2023-04-02T14:15:03.631Z,2.65
2023-04-02T14:20:28.869Z,2.03
2023-04-02T14:25:40.285Z,2.30
2023-04-02T14:31:07.850Z,2.75
2023-04-02T14:36:18.783Z,3.00
2023-04-02T14:42:02.255Z,3.05
2023-04-02T14:47:26.191Z,4.13
2023-04-02T14:52:33.904Z,3.80
2023-04-02T14:57:45.034Z,3.67
2023-04-02T15:03:06.503Z,3.15
2023-04-02T15:08:21.118Z,2.45
2023-04-02T15:13:31.301Z,2.35
2023-04-02T15:18:33.726Z,1.65
2023-04-02T15:23:51.299Z,3.08
2023-04-02T15:29:07.570Z,2.60
2023-04-02T15:34:58.172Z,2.30
2023-04-02T15:40:25.653Z,2.85
2023-04-02T15:45:59.009Z,2.90
2023-04-02T15:51:13.651Z,2.55
2023-04-02T15:56:39.063Z,2.45
2023-04-02T16:01:53.660Z,2.42
2023-04-02T16:07:28.209Z,2.33
2023-04-02T16:12:33.695Z,1.92
2023-04-02T16:17:48.888Z,2.15
2023-04-02T16:23:01.173Z,2.25
2023-04-02T16:28:12.887Z,2.90
2023-04-02T16:33:20.119Z,2.92
2023-04-02T16:38:46.635Z,2.80
2023-04-02T16:44:07.910Z,3.80
2023-04-02T16:49:48.652Z,4.10
2023-04-02T16:55:12.833Z,2.78
2023-04-02T17:00:56.498Z,3.30
2023-04-02T17:06:07.184Z,4.00
2023-04-02T17:11:21.693Z,3.40
2023-04-02T17:16:42.100Z,3.22
2023-04-02T17:21:48.963Z,3.90
2023-04-02T17:26:55.306Z,3.88
2023-04-02T17:32:01.739Z,4.43
2023-04-02T17:37:43.036Z,4.80
2023-04-02T17:42:57.214Z,4.78
2023-04-02T17:48:13.052Z,4.93
2023-04-02T17:53:22.010Z,3.95
2023-04-02T17:58:24.292Z,4.70
2023-04-02T18:03:50.827Z,4.60
2023-04-02T18:09:29.346Z,5.28
2023-04-02T18:15:16.160Z,4.65
2023-04-02T18:20:21.339Z,6.32
2023-04-02T18:25:29.640Z,4.50
2023-04-02T18:30:56.176Z,2.75
2023-04-02T18:36:19.856Z,2.88
2023-04-02T18:46:50.716Z,2.42
2023-04-02T18:51:59.204Z,3.40
2023-04-02T18:57:10.430Z,2.80
2023-04-02T19:02:41.846Z,2.35
2023-04-02T19:07:47.286Z,2.50
2023-04-02T19:12:49.532Z,2.45
2023-04-02T19:18:30.706Z,2.47
2023-04-02T19:24:01.131Z,2.70
2023-04-02T19:29:06.450Z,2.67
2023-04-02T19:34:24.913Z,2.40
2023-04-02T19:39:39.851Z,3.35
2023-04-02T19:44:47.419Z,3.20
2023-04-02T19:49:49.956Z,4.28
2023-04-02T19:54:52.588Z,3.55
2023-04-02T19:59:54.930Z,2.97
2023-04-02T20:04:57.431Z,3.17
2023-04-02T20:09:59.681Z,2.58
2023-04-02T20:15:02.110Z,3.35
2023-04-02T20:20:06.840Z,2.17
2023-04-02T20:25:09.342Z,2.80
2023-04-02T20:30:12.156Z,2.10
2023-04-02T20:35:14.548Z,2.70
2023-04-02T20:40:16.947Z,2.35
2023-04-02T20:45:19.533Z,2.53
2023-04-02T20:50:22.073Z,2.20
2023-04-02T20:55:24.377Z,2.60
2023-04-02T21:00:26.694Z,3.03
2023-04-02T21:05:29.092Z,3.30
2023-04-02T21:10:31.366Z,3.50
2023-04-02T21:15:34.178Z,2.88
2023-04-02T21:20:36.724Z,3.17
2023-04-02T21:25:39.025Z,2.58
2023-04-02T21:30:41.534Z,3.05
2023-04-02T21:35:43.964Z,3.53
2023-04-02T21:40:46.232Z,3.63
2023-04-02T21:45:48.509Z,3.72
2023-04-02T21:50:50.812Z,3.83
2023-04-02T21:56:01.487Z,3.05
2023-04-02T22:01:07.135Z,4.40
2023-04-02T22:06:14.230Z,3.22
2023-04-02T22:11:19.414Z,3.10
2023-04-02T22:16:24.759Z,3.50
2023-04-02T22:21:27.766Z,3.47
2023-04-02T22:26:31.477Z,3.60
2023-04-02T22:31:35.364Z,3.83
2023-04-02T22:36:37.912Z,3.78
2023-04-02T22:41:40.268Z,4.43
2023-04-02T22:46:42.625Z,4.28
2023-04-02T22:51:45.676Z,4.22
2023-04-02T22:56:48.098Z,4.72
2023-04-02T23:01:50.611Z,4.80
2023-04-02T23:06:53.253Z,4.85
2023-04-02T23:11:55.865Z,4.20
2023-04-02T23:16:58.152Z,3.85
2023-04-02T23:22:00.502Z,3.67
2023-04-02T23:27:03.305Z,4.03
2023-04-02T23:32:06.129Z,3.78
2023-04-02T23:37:08.868Z,4.75
2023-04-02T23:42:12.128Z,4.93
2023-04-02T23:47:14.460Z,6.40
2023-04-02T23:52:16.768Z,9.23
2023-04-02T23:57:19.541Z,10.45
